createdAt,value
2023-02-28T00:01:33.252Z,4.13
2023-02-28T00:04:02.500Z,2.50
2023-02-28T00:06:31.093Z,5.37
2023-02-28T00:08:59.496Z,3.33
2023-02-28T00:11:28.220Z,3.37
2023-02-28T00:13:56.703Z,4.27
2023-02-28T00:16:26.799Z,2.97
2023-02-28T00:18:55.036Z,2.73
2023-02-28T00:21:23.424Z,3.83
2023-02-28T00:23:51.856Z,2.77
2023-02-28T00:26:22.021Z,4.07
2023-02-28T00:28:50.619Z,4.37
2023-02-28T00:31:18.889Z,3.47
2023-02-28T00:33:48.514Z,3.17
2023-02-28T00:36:17.072Z,3.60
2023-02-28T00:38:45.261Z,3.03
2023-02-28T00:41:13.619Z,4.87
2023-02-28T00:43:42.412Z,3.07
2023-02-28T00:46:10.903Z,5.57
2023-02-28T00:48:39.241Z,4.20
2023-02-28T00:51:08.847Z,6.63
2023-02-28T00:53:37.322Z,6.20
2023-02-28T00:56:05.846Z,4.63
2023-02-28T00:58:34.328Z,4.20
2023-02-28T01:01:02.910Z,5.43
2023-02-28T01:03:31.421Z,3.13
2023-02-28T01:05:59.688Z,4.13
2023-02-28T01:08:30.095Z,3.93
2023-02-28T01:10:58.859Z,2.93
2023-02-28T01:13:27.477Z,3.90
2023-02-28T01:15:58.285Z,4.13
2023-02-28T01:18:26.718Z,4.87
2023-02-28T01:20:55.419Z,3.33
2023-02-28T01:23:25.271Z,4.17
2023-02-28T01:25:55.282Z,2.87
2023-02-28T01:28:23.716Z,5.90
2023-02-28T01:30:52.932Z,4.33
2023-02-28T01:33:21.504Z,4.17
2023-02-28T01:35:49.633Z,3.57
2023-02-28T01:38:22.899Z,4.97
2023-02-28T01:40:52.502Z,4.47
2023-02-28T01:43:25.538Z,3.30
2023-02-28T01:45:54.740Z,4.30
2023-02-28T01:48:28.261Z,3.70
2023-02-28T01:51:00.896Z,3.63
2023-02-28T01:53:34.237Z,5.43
2023-02-28T01:56:05.839Z,4.23
2023-02-28T01:58:35.459Z,4.87
2023-02-28T02:01:04.668Z,4.00
2023-02-28T02:03:34.539Z,4.00
2023-02-28T02:06:03.540Z,4.23
2023-02-28T02:08:32.103Z,2.60
2023-02-28T02:11:02.668Z,5.40
2023-02-28T02:14:03.919Z,3.23
2023-02-28T02:16:44.446Z,6.27
2023-02-28T02:19:35.764Z,3.47
2023-02-28T02:22:23.441Z,3.70
2023-02-28T02:25:12.905Z,3.80
2023-02-28T02:28:12.997Z,5.77
2023-02-28T02:31:15.631Z,4.40
2023-02-28T02:34:18.991Z,3.23
2023-02-28T02:36:54.759Z,4.30
2023-02-28T02:39:30.473Z,3.17
2023-02-28T02:42:04.398Z,4.83
2023-02-28T02:44:36.901Z,5.10
2023-02-28T02:47:10.611Z,4.73
2023-02-28T02:49:42.363Z,3.07
2023-02-28T02:52:16.551Z,3.90
2023-02-28T02:54:47.906Z,3.47
2023-02-28T02:57:20.193Z,3.30
2023-02-28T02:59:50.438Z,4.10
2023-02-28T03:02:20.142Z,4.60
2023-02-28T03:04:53.937Z,4.30
2023-02-28T03:07:26.928Z,4.80
2023-02-28T03:09:56.727Z,4.40
2023-02-28T03:12:30.637Z,3.30
2023-02-28T03:15:09.777Z,4.17
2023-02-28T03:17:57.945Z,5.57
2023-02-28T03:20:37.208Z,5.27
2023-02-28T03:23:19.650Z,3.87
2023-02-28T03:25:56.927Z,4.90
2023-02-28T03:28:34.039Z,5.13
2023-02-28T03:31:10.293Z,6.03
2023-02-28T03:33:46.245Z,6.73
2023-02-28T03:36:18.448Z,3.93
2023-02-28T03:38:52.383Z,4.47
2023-02-28T03:41:24.504Z,4.33
2023-02-28T03:43:56.671Z,6.97
2023-02-28T03:46:28.331Z,5.80
2023-02-28T03:49:04.728Z,5.13
2023-02-28T03:51:34.256Z,5.07
2023-02-28T03:54:08.640Z,5.20
2023-02-28T03:56:41.308Z,6.13
2023-02-28T03:59:15.335Z,6.87
2023-02-28T04:01:45.827Z,6.50
2023-02-28T04:04:15.465Z,7.43
2023-02-28T04:06:44.270Z,8.43
2023-02-28T04:09:15.874Z,7.00
2023-02-28T04:11:46.222Z,7.73
2023-02-28T04:14:14.731Z,5.07
2023-02-28T04:16:44.244Z,6.43
2023-02-28T04:19:14.242Z,6.07
2023-02-28T04:21:46.123Z,5.23
2023-02-28T04:24:17.474Z,6.80
2023-02-28T04:26:47.357Z,8.53
2023-02-28T04:29:17.036Z,7.87
2023-02-28T04:31:45.271Z,9.87
2023-02-28T04:34:13.433Z,11.63
2023-02-28T04:36:41.592Z,6.10
2023-02-28T04:39:10.697Z,8.00
2023-02-28T04:41:40.435Z,9.50
2023-02-28T04:44:08.534Z,8.23
2023-02-28T04:46:38.097Z,5.70
2023-02-28T04:49:06.476Z,7.80
2023-02-28T05:00:17.805Z,7.40
2023-02-28T05:02:46.799Z,8.40
2023-02-28T05:05:19.201Z,7.27
2023-02-28T05:07:47.596Z,8.80
2023-02-28T05:10:15.958Z,8.30
2023-02-28T05:12:49.089Z,9.27
2023-02-28T05:15:19.913Z,10.97
2023-02-28T05:17:48.384Z,8.13
2023-02-28T05:20:16.805Z,7.80
2023-02-28T05:22:45.780Z,7.80
2023-02-28T05:25:18.122Z,9.37
2023-02-28T05:27:46.393Z,10.97
2023-02-28T05:30:15.025Z,8.77
2023-02-28T05:32:44.739Z,11.13
2023-02-28T05:35:13.840Z,8.63
2023-02-28T05:37:42.064Z,12.37
2023-02-28T05:40:12.227Z,11.57
2023-02-28T05:42:40.556Z,8.37
2023-02-28T05:45:10.247Z,10.50
2023-02-28T05:47:38.686Z,13.13
2023-02-28T05:50:10.570Z,9.63
2023-02-28T05:52:39.151Z,12.80
2023-02-28T05:55:08.335Z,9.40
2023-02-28T05:57:36.337Z,11.27
2023-02-28T06:00:05.366Z,8.97
2023-02-28T06:02:33.494Z,11.70
2023-02-28T06:05:01.583Z,12.30
2023-02-28T06:07:30.853Z,14.10
2023-02-28T06:09:58.885Z,10.07
2023-02-28T06:12:26.989Z,10.60
2023-02-28T06:14:55.165Z,11.30
2023-02-28T06:17:28.218Z,10.73
2023-02-28T06:19:56.557Z,11.80
2023-02-28T06:22:24.801Z,11.67
2023-02-28T06:27:56.874Z,13.07
2023-02-28T06:30:27.983Z,12.97
2023-02-28T06:32:56.836Z,11.63
2023-02-28T06:35:27.550Z,16.03
2023-02-28T06:37:55.832Z,12.17
2023-02-28T06:40:25.448Z,12.33
2023-02-28T06:42:53.632Z,12.27
2023-02-28T06:45:21.809Z,11.40
2023-02-28T06:47:53.121Z,13.97
2023-02-28T06:50:21.735Z,17.80
2023-02-28T06:52:54.838Z,17.97
2023-02-28T06:55:24.266Z,11.97
2023-02-28T06:57:53.235Z,9.83
2023-02-28T07:00:21.806Z,10.90
2023-02-28T07:02:50.065Z,13.57
2023-02-28T07:05:18.238Z,12.57
2023-02-28T07:07:47.926Z,13.03
2023-02-28T07:10:20.284Z,15.30
2023-02-28T07:12:50.200Z,18.83
2023-02-28T07:15:18.508Z,14.10
2023-02-28T07:17:46.628Z,18.47
2023-02-28T07:20:15.729Z,11.33
2023-02-28T07:22:43.953Z,12.47
2023-02-28T07:25:12.039Z,12.37
2023-02-28T07:27:41.769Z,13.87
2023-02-28T07:30:13.129Z,18.07
2023-02-28T07:32:42.922Z,13.20
2023-02-28T07:35:12.829Z,13.63
2023-02-28T07:37:41.810Z,12.83
2023-02-28T07:40:13.716Z,13.27
2023-02-28T07:42:42.319Z,21.87
2023-02-28T07:45:13.501Z,15.00
2023-02-28T07:47:41.571Z,13.50
2023-02-28T07:50:13.352Z,12.63
2023-02-28T07:52:41.846Z,14.03
2023-02-28T07:55:11.745Z,15.00
2023-02-28T07:57:39.876Z,14.20
2023-02-28T08:00:13.619Z,11.63
2023-02-28T08:02:42.011Z,13.20
2023-02-28T08:05:10.327Z,11.70
2023-02-28T08:07:38.382Z,13.43
2023-02-28T08:10:07.694Z,14.87
2023-02-28T08:12:36.275Z,13.93
2023-02-28T08:15:04.626Z,16.40
2023-02-28T08:17:35.471Z,12.37
2023-02-28T08:20:05.214Z,11.10
2023-02-28T08:22:33.486Z,14.80
2023-02-28T08:25:01.705Z,16.03
2023-02-28T08:27:29.840Z,15.10
2023-02-28T08:29:57.953Z,12.63
2023-02-28T08:32:30.534Z,14.00
2023-02-28T08:35:00.138Z,15.00
2023-02-28T08:37:28.304Z,11.17
2023-02-28T08:39:56.712Z,14.90
2023-02-28T08:42:25.056Z,13.23
2023-02-28T08:44:53.133Z,14.23
2023-02-28T08:47:21.544Z,14.20
2023-02-28T08:49:49.773Z,13.87
2023-02-28T08:52:19.438Z,12.80
2023-02-28T08:54:47.797Z,14.53
2023-02-28T08:57:16.669Z,13.73
2023-02-28T08:59:44.754Z,11.93
2023-02-28T09:02:15.224Z,14.97
2023-02-28T09:04:46.395Z,13.33
2023-02-28T09:07:14.977Z,15.23
2023-02-28T09:09:54.796Z,9.40
2023-02-28T09:12:23.721Z,13.77
2023-02-28T09:14:51.998Z,14.17
2023-02-28T09:17:20.489Z,13.07
2023-02-28T09:19:50.418Z,15.20
2023-02-28T09:22:18.766Z,13.77
2023-02-28T09:24:48.482Z,12.53
2023-02-28T09:27:16.728Z,15.40
2023-02-28T09:29:44.735Z,14.50
2023-02-28T09:32:12.837Z,13.00
2023-02-28T09:34:41.416Z,15.10
2023-02-28T09:37:11.304Z,16.53
2023-02-28T09:39:39.675Z,15.40
2023-02-28T09:42:20.507Z,13.47
2023-02-28T09:44:49.964Z,15.60
2023-02-28T09:47:29.130Z,18.30
2023-02-28T09:50:00.103Z,12.97
2023-02-28T09:52:32.145Z,13.93
2023-02-28T09:55:12.436Z,14.40
2023-02-28T09:57:43.641Z,19.50
2023-02-28T10:00:19.442Z,15.87
2023-02-28T10:03:14.019Z,18.23
2023-02-28T10:05:50.852Z,16.43
2023-02-28T10:08:26.200Z,16.37
2023-02-28T10:10:58.013Z,14.80
2023-02-28T10:13:35.851Z,16.23
2023-02-28T10:16:08.943Z,13.07
2023-02-28T10:18:45.906Z,15.17
2023-02-28T10:21:24.750Z,15.67
2023-02-28T10:24:01.341Z,14.10
2023-02-28T10:26:33.144Z,15.60
2023-02-28T10:29:03.792Z,18.30
2023-02-28T10:31:32.022Z,16.97
2023-02-28T10:34:00.238Z,14.53
2023-02-28T10:36:29.580Z,12.13
2023-02-28T10:38:57.905Z,17.03
2023-02-28T10:41:32.971Z,15.67
2023-02-28T10:44:22.083Z,13.17
2023-02-28T10:46:52.572Z,16.37
2023-02-28T10:49:23.988Z,13.10
2023-02-28T10:51:57.776Z,14.90
2023-02-28T10:54:30.176Z,15.03
2023-02-28T10:57:20.794Z,13.57
2023-02-28T10:59:53.595Z,13.27
2023-02-28T11:02:37.738Z,10.43
2023-02-28T11:05:25.988Z,13.80
2023-02-28T11:07:55.482Z,15.90
2023-02-28T11:10:28.211Z,11.87
2023-02-28T11:12:59.805Z,15.10
2023-02-28T11:15:32.138Z,13.23
2023-02-28T11:18:02.590Z,13.67
2023-02-28T11:20:33.663Z,14.10
2023-02-28T11:23:04.531Z,13.63
2023-02-28T11:25:34.378Z,15.60
2023-02-28T11:28:05.701Z,13.70
2023-02-28T11:30:41.595Z,12.97
2023-02-28T11:33:29.354Z,14.30
2023-02-28T11:36:01.118Z,13.23
2023-02-28T11:38:30.148Z,12.77
2023-02-28T11:41:09.896Z,15.30
2023-02-28T11:43:53.014Z,14.60
2023-02-28T11:46:32.169Z,16.40
2023-02-28T11:49:08.137Z,17.73
2023-02-28T11:51:42.280Z,17.97
2023-02-28T11:54:32.084Z,13.07
2023-02-28T11:57:06.543Z,12.37
2023-02-28T12:00:00.415Z,13.17
2023-02-28T12:02:36.230Z,14.40
2023-02-28T12:05:17.728Z,17.70
2023-02-28T12:07:55.881Z,11.80
2023-02-28T12:10:27.124Z,26.73
2023-02-28T12:13:10.813Z,12.13
2023-02-28T12:16:07.390Z,15.07
2023-02-28T12:19:01.436Z,10.37
2023-02-28T12:21:38.451Z,12.93
2023-02-28T12:24:26.640Z,16.37
2023-02-28T12:26:57.698Z,9.00
2023-02-28T12:29:29.699Z,12.40
2023-02-28T12:32:01.864Z,18.47
2023-02-28T12:34:36.370Z,12.77
2023-02-28T12:37:12.358Z,16.27
2023-02-28T12:39:50.441Z,12.60
2023-02-28T12:42:26.198Z,12.57
2023-02-28T12:44:58.819Z,19.83
2023-02-28T12:47:27.214Z,11.57
2023-02-28T12:50:00.552Z,15.80
2023-02-28T12:52:38.191Z,10.00
2023-02-28T12:55:14.665Z,14.67
2023-02-28T12:57:48.183Z,12.97
2023-02-28T13:00:19.795Z,12.40
2023-02-28T13:03:35.279Z,13.57
2023-02-28T13:06:28.879Z,13.20
2023-02-28T13:09:05.784Z,12.07
2023-02-28T13:11:39.909Z,13.57
2023-02-28T13:14:20.884Z,18.03
2023-02-28T13:17:04.713Z,12.53
2023-02-28T13:19:35.464Z,14.00
2023-02-28T13:22:05.985Z,10.27
2023-02-28T13:24:50.204Z,11.13
2023-02-28T13:27:37.959Z,10.90
2023-02-28T13:30:39.853Z,9.50
2023-02-28T13:33:25.311Z,13.67
2023-02-28T13:36:10.047Z,18.00
2023-02-28T13:38:44.563Z,11.43
2023-02-28T13:41:48.968Z,15.77
2023-02-28T13:44:21.176Z,10.00
2023-02-28T13:47:31.433Z,10.77
2023-02-28T13:50:22.738Z,13.00
2023-02-28T13:53:02.084Z,13.50
2023-02-28T13:55:45.922Z,9.80
2023-02-28T13:58:28.928Z,11.27
2023-02-28T14:01:28.692Z,11.67
2023-02-28T14:04:15.463Z,11.67
2023-02-28T14:06:50.885Z,11.93
2023-02-28T14:09:25.745Z,12.23
2023-02-28T14:11:55.847Z,13.23
2023-02-28T14:14:59.021Z,11.83
2023-02-28T14:17:28.234Z,11.97
2023-02-28T14:19:56.913Z,13.87
2023-02-28T14:22:51.704Z,9.87
2023-02-28T14:25:27.053Z,12.60
2023-02-28T14:28:13.124Z,12.63
2023-02-28T14:31:06.613Z,16.00
2023-02-28T14:33:49.681Z,19.60
2023-02-28T14:36:24.176Z,10.83
2023-02-28T14:38:55.400Z,12.30
2023-02-28T14:41:27.232Z,11.77
2023-02-28T14:43:59.417Z,15.63
2023-02-28T14:46:36.036Z,15.43
2023-02-28T14:49:05.823Z,10.57
2023-02-28T14:51:34.599Z,28.57
2023-02-28T14:54:05.716Z,10.27
2023-02-28T14:56:38.957Z,15.87
2023-02-28T14:59:32.833Z,11.43
2023-02-28T15:02:26.145Z,9.80
2023-02-28T15:04:59.514Z,10.67
2023-02-28T15:07:31.484Z,9.37
2023-02-28T15:10:16.396Z,14.93
2023-02-28T15:12:51.640Z,10.73
2023-02-28T15:15:31.743Z,10.50
2023-02-28T15:18:10.095Z,9.50
2023-02-28T15:20:40.910Z,9.93
2023-02-28T15:23:09.494Z,10.60
2023-02-28T15:25:37.807Z,10.87
2023-02-28T15:28:06.060Z,9.53
2023-02-28T15:30:35.896Z,10.50
2023-02-28T15:33:09.366Z,12.00
2023-02-28T15:35:38.026Z,10.03
2023-02-28T15:38:17.169Z,11.10
2023-02-28T15:40:50.434Z,13.30
2023-02-28T15:43:20.921Z,9.00
2023-02-28T15:45:52.274Z,9.80
2023-02-28T15:48:24.544Z,9.33
2023-02-28T15:50:55.620Z,11.30
2023-02-28T15:53:27.209Z,13.07
2023-02-28T15:55:59.961Z,10.47
2023-02-28T15:58:28.345Z,10.20
2023-02-28T16:01:09.339Z,13.00
2023-02-28T16:03:45.361Z,13.30
2023-02-28T16:06:43.278Z,13.00
2023-02-28T16:09:14.233Z,10.17
2023-02-28T16:11:47.738Z,12.83
2023-02-28T16:14:18.743Z,12.80
2023-02-28T16:16:50.446Z,11.80
2023-02-28T16:19:18.919Z,17.47
2023-02-28T16:24:30.373Z,12.60
2023-02-28T16:27:00.413Z,13.10
2023-02-28T16:29:40.371Z,12.47
2023-02-28T16:32:22.186Z,11.40
2023-02-28T16:34:58.603Z,13.43
2023-02-28T16:37:28.090Z,12.13
2023-02-28T16:39:57.834Z,11.73
2023-02-28T16:42:32.019Z,17.93
2023-02-28T16:45:01.867Z,12.30
2023-02-28T16:47:50.845Z,12.30
2023-02-28T16:50:22.065Z,12.60
2023-02-28T16:52:53.685Z,11.00
2023-02-28T16:55:36.173Z,14.40
2023-02-28T16:58:06.527Z,12.07
2023-02-28T17:00:39.597Z,11.97
2023-02-28T17:03:33.132Z,14.20
2023-02-28T17:06:02.690Z,13.77
2023-02-28T17:08:34.969Z,14.83
2023-02-28T17:11:07.084Z,13.90
2023-02-28T17:13:35.789Z,15.77
2023-02-28T17:16:04.734Z,14.03
2023-02-28T17:18:35.961Z,15.50
2023-02-28T17:21:04.404Z,13.20
2023-02-28T17:23:32.757Z,12.47
2023-02-28T17:26:01.023Z,11.70
2023-02-28T17:28:29.689Z,12.43
2023-02-28T17:30:57.895Z,11.37
2023-02-28T17:33:26.421Z,14.33
2023-02-28T17:38:59.830Z,13.67
2023-02-28T17:41:59.152Z,13.80
2023-02-28T17:44:28.368Z,17.30
2023-02-28T17:47:00.022Z,20.03
2023-02-28T17:49:28.449Z,14.20
2023-02-28T17:51:58.567Z,14.20
2023-02-28T17:54:27.804Z,14.97
2023-02-28T17:56:56.571Z,18.03
2023-02-28T17:59:24.693Z,14.57
2023-02-28T18:01:53.200Z,19.80
2023-02-28T18:04:21.201Z,16.03
2023-02-28T18:06:50.629Z,14.60
2023-02-28T18:09:22.635Z,15.17
2023-02-28T18:11:51.093Z,14.90
2023-02-28T18:14:21.213Z,14.93
2023-02-28T18:16:49.089Z,15.77
2023-02-28T18:19:17.672Z,14.33
2023-02-28T18:21:46.529Z,12.80
2023-02-28T18:24:15.145Z,14.67
2023-02-28T18:26:44.672Z,14.87
2023-02-28T18:29:18.809Z,12.87
2023-02-28T18:31:47.277Z,13.17
2023-02-28T18:37:20.059Z,12.10
2023-02-28T18:53:25.097Z,16.03
2023-02-28T18:55:54.296Z,15.03
2023-02-28T18:58:28.082Z,14.40
2023-02-28T19:01:07.846Z,14.07
2023-02-28T19:03:36.754Z,16.90
2023-02-28T19:06:07.126Z,14.87
2023-02-28T19:08:35.368Z,16.60
2023-02-28T19:11:09.061Z,14.97
2023-02-28T19:13:38.032Z,14.50
2023-02-28T19:16:08.820Z,14.17
2023-02-28T19:18:37.600Z,16.40
2023-02-28T19:21:08.188Z,13.97
2023-02-28T19:23:36.286Z,16.37
2023-02-28T19:26:07.743Z,13.90
2023-02-28T19:28:36.193Z,18.13
2023-02-28T19:31:44.786Z,13.30
2023-02-28T19:34:13.168Z,17.07
2023-02-28T19:36:42.882Z,16.20
2023-02-28T19:39:13.051Z,13.03
2023-02-28T19:41:41.331Z,17.70
2023-02-28T19:44:09.819Z,18.30
2023-02-28T19:46:47.405Z,18.07
2023-02-28T19:49:15.615Z,17.30
2023-02-28T19:51:45.514Z,17.30
2023-02-28T19:54:14.655Z,20.57
2023-02-28T19:56:43.655Z,18.13
2023-02-28T19:59:21.989Z,17.57
2023-02-28T20:02:00.318Z,13.43
2023-02-28T20:04:29.093Z,16.90
2023-02-28T20:06:58.633Z,18.23
2023-02-28T20:09:26.735Z,19.20
2023-02-28T20:11:59.302Z,20.73
2023-02-28T20:14:27.790Z,16.23
2023-02-28T20:16:58.134Z,17.67
2023-02-28T20:19:26.649Z,15.50
2023-02-28T20:21:54.806Z,18.03
2023-02-28T20:24:25.978Z,18.77
2023-02-28T20:26:54.378Z,17.23
2023-02-28T20:29:22.488Z,16.63
2023-02-28T20:31:51.212Z,13.70
2023-02-28T20:34:20.037Z,19.63
2023-02-28T20:36:48.431Z,19.77
2023-02-28T20:39:21.356Z,18.03
2023-02-28T20:41:52.015Z,20.93
2023-02-28T20:44:20.858Z,17.93
2023-02-28T20:46:48.990Z,29.53
2023-02-28T20:49:17.272Z,14.30
2023-02-28T20:51:45.372Z,15.03
2023-02-28T20:54:14.109Z,16.47
2023-02-28T20:56:42.326Z,19.13
2023-02-28T20:59:13.351Z,17.47
2023-02-28T21:01:43.886Z,15.80
2023-02-28T21:04:12.289Z,17.53
2023-02-28T21:06:44.363Z,14.20
2023-02-28T21:09:14.817Z,18.60
2023-02-28T21:11:43.626Z,14.53
2023-02-28T21:14:16.762Z,20.87
2023-02-28T21:16:45.358Z,18.80
2023-02-28T21:19:13.927Z,21.53
2023-02-28T21:21:44.118Z,20.50
2023-02-28T21:24:12.928Z,17.47
2023-02-28T21:26:42.752Z,28.37
2023-02-28T21:29:10.990Z,18.97
2023-02-28T21:31:40.765Z,17.27
2023-02-28T21:34:12.038Z,17.37
2023-02-28T21:36:41.948Z,18.90
2023-02-28T21:39:14.632Z,16.20
2023-02-28T21:41:43.328Z,16.47
2023-02-28T21:47:02.257Z,15.80
2023-02-28T21:49:31.193Z,16.77
2023-02-28T21:52:00.644Z,16.30
2023-02-28T21:54:28.890Z,17.37
2023-02-28T21:56:57.222Z,17.50
2023-02-28T21:59:25.596Z,15.27
2023-02-28T22:01:55.241Z,16.70
2023-02-28T22:04:25.805Z,18.00
2023-02-28T22:06:57.412Z,21.10
2023-02-28T22:09:27.105Z,19.13
2023-02-28T22:11:56.289Z,18.30
2023-02-28T22:14:25.184Z,14.57
2023-02-28T22:16:55.698Z,16.97
2023-02-28T22:19:28.210Z,16.23
2023-02-28T22:21:59.006Z,18.33
2023-02-28T22:24:27.290Z,18.80
2023-02-28T22:26:55.590Z,18.87
2023-02-28T22:29:24.636Z,18.27
2023-02-28T22:31:53.108Z,14.93
2023-02-28T22:34:21.466Z,14.80
2023-02-28T22:36:51.300Z,17.07
2023-02-28T22:39:19.427Z,16.77
2023-02-28T22:41:47.726Z,15.43
2023-02-28T22:44:16.516Z,17.70
2023-02-28T22:46:44.701Z,16.57
2023-02-28T22:49:13.026Z,14.70
2023-02-28T22:51:41.246Z,18.53
2023-02-28T22:54:11.464Z,15.50
2023-02-28T22:56:39.852Z,21.17
2023-02-28T22:59:08.709Z,17.60
2023-02-28T23:01:37.883Z,17.40
2023-02-28T23:04:09.307Z,18.37
2023-02-28T23:06:43.322Z,17.47
2023-02-28T23:09:18.048Z,18.47
2023-02-28T23:11:49.361Z,15.40
2023-02-28T23:14:19.326Z,13.10
2023-02-28T23:16:50.597Z,18.13
2023-02-28T23:19:20.976Z,15.80
2023-02-28T23:21:49.458Z,18.00
2023-02-28T23:29:34.187Z,15.90
2023-02-28T23:32:02.893Z,18.03
2023-02-28T23:34:32.624Z,19.50
2023-02-28T23:37:04.876Z,18.73
2023-02-28T23:39:36.253Z,20.63
2023-02-28T23:42:05.019Z,21.60
2023-02-28T23:44:34.647Z,17.17
2023-02-28T23:47:03.128Z,15.23
2023-02-28T23:49:31.450Z,20.30
2023-02-28T23:52:03.889Z,17.80
2023-02-28T23:54:35.445Z,19.23
2023-02-28T23:57:03.786Z,18.97
2023-02-28T23:59:32.142Z,16.03
